ESNQ

Kiruna Airport

Sweden
TAF ESNQ 251730Z 2518/2523 34004KT CAVOK
Issued Valid From Valid To
Apr-25 @ 17:30 UTC
(51 minutes ago)
Apr-25 @ 18:00 UTC
(21 minutes ago)
Apr-25 @ 23:00 UTC
(in 5 hours)
Apr-25 @ 18:00 to Apr-25 @ 23:00
TAF ESNQ 251730Z 2518/2523 34004KT CAVOK
Wind Visibility Clouds Conditions
340° at 4 knots 10,000+ meters
  • No significant clouds
TAF ESNQ 251730Z 2518/2523 34004KT CAVOK
Issued Apr-25 @ 17:30 UTC
(51 minutes ago)
Valid From Apr-25 @ 18:00 UTC
(21 minutes ago)
Valid To Apr-25 @ 23:00 UTC
(in 5 hours)
Apr-25 @ 18:00 - Apr-25 @ 23:00
Wind Visibility
340° at 4 knots 10,000+ meters
Clouds
  • No significant clouds
Conditions